Time;durP1;ratioP1;P1;durP2;ratioP2;P2;SDS_P1;SDS_P2;PMS_P1;PMS_P2;Temp;Humidity;BMP_temperature;BMP_pressure;BME280_temperature;BME280_humidity;BME280_pressure;Samples;Min_cycle;Max_cycle;Signal;HPM_P1;HPM_P2
2023/05/15 00:01:25;;;;;;;32.88;18.80;;;;;;;10.95;100.00;101618.38;5065651;28;20063;-46
2023/05/15 00:03:51;;;;;;;37.58;19.15;;;;;;;10.90;100.00;101609.94;5068934;28;20115;-42
2023/05/15 00:06:16;;;;;;;33.42;19.20;;;;;;;10.85;100.00;101610.47;5062751;28;20505;-43
2023/05/15 00:08:42;;;;;;;34.97;20.10;;;;;;;10.83;100.00;101603.56;5057897;28;20111;-49
2023/05/15 00:11:07;;;;;;;48.58;22.50;;;;;;;10.75;100.00;101599.81;5063943;28;20060;-43
2023/05/15 00:13:33;;;;;;;37.78;22.70;;;;;;;10.72;100.00;101594.78;5057996;28;20109;-45
2023/05/15 00:15:58;;;;;;;46.95;24.27;;;;;;;10.72;100.00;101600.16;5056509;28;20017;-42
2023/05/15 00:18:24;;;;;;;47.60;26.25;;;;;;;10.70;100.00;101598.63;5060334;28;20032;-40
2023/05/15 00:20:49;;;;;;;59.42;26.63;;;;;;;10.72;100.00;101600.16;5059339;28;20029;-46
2023/05/15 00:23:15;;;;;;;48.50;26.88;;;;;;;10.74;100.00;101599.97;5056130;28;20033;-41
2023/05/15 00:25:41;;;;;;;51.25;27.63;;;;;;;10.72;100.00;101594.78;5060200;28;20429;-46
2023/05/15 00:28:06;;;;;;;48.83;29.10;;;;;;;10.73;100.00;101598.31;5050118;28;20029;-45
2023/05/15 00:30:31;;;;;;;49.42;26.75;;;;;;;10.71;100.00;101595.75;5054499;28;20063;-45
2023/05/15 00:32:57;;;;;;;56.60;27.92;;;;;;;10.72;100.00;101594.78;5054036;28;20390;-44
2023/05/15 00:35:22;;;;;;;49.30;25.17;;;;;;;10.71;100.00;101597.63;5060584;28;20119;-47
2023/05/15 00:37:47;;;;;;;43.40;24.13;;;;;;;10.67;100.00;101589.03;5050435;28;20495;-46
2023/05/15 00:40:18;;;;;;;45.97;24.20;;;;;;;10.66;100.00;101590.03;5061434;28;20024;-47
2023/05/15 00:42:44;;;;;;;42.40;22.05;;;;;;;10.59;100.00;101586.31;5050812;28;20064;-41
2023/05/15 00:45:10;;;;;;;45.88;24.02;;;;;;;10.61;100.00;101589.69;5063697;28;20081;-43
2023/05/15 00:47:37;;;;;;;44.17;23.90;;;;;;;10.59;100.00;101586.31;5065938;28;20036;-43
2023/05/15 00:50:03;;;;;;;39.13;22.97;;;;;;;10.59;100.00;101586.31;5058888;28;20040;-48
2023/05/15 00:52:29;;;;;;;47.30;25.33;;;;;;;10.59;100.00;101580.94;5057686;28;20286;-44
2023/05/15 00:54:54;;;;;;;45.72;25.33;;;;;;;10.56;100.00;101570.50;5057797;28;20032;-44
2023/05/15 00:57:20;;;;;;;56.90;27.65;;;;;;;10.55;100.00;101574.19;5063019;28;20127;-43
2023/05/15 00:59:46;;;;;;;45.17;27.38;;;;;;;10.52;100.00;101574.53;5065719;28;20024;-44
2023/05/15 01:02:14;;;;;;;46.75;26.88;;;;;;;10.51;100.00;101578.22;5061330;28;20041;-42
2023/05/15 01:04:40;;;;;;;43.55;25.17;;;;;;;10.49;100.00;101570.31;5059638;28;20505;-41
2023/05/15 01:07:05;;;;;;;50.50;26.08;;;;;;;10.49;100.00;101574.84;5062679;28;20029;-44
2023/05/15 01:09:31;;;;;;;47.95;27.48;;;;;;;10.47;100.00;101574.16;5039205;28;20029;-43
2023/05/15 01:11:58;;;;;;;61.45;26.90;;;;;;;10.46;100.00;101572.50;5039062;28;20114;-46
2023/05/15 01:14:23;;;;;;;58.60;28.83;;;;;;;10.43;100.00;101575.50;5053899;28;20035;-43
2023/05/15 01:16:49;;;;;;;50.15;28.17;;;;;;;10.43;100.00;101576.34;5050936;28;20049;-42
2023/05/15 01:19:14;;;;;;;57.45;31.20;;;;;;;10.42;100.00;101574.66;5068545;28;20036;-42
2023/05/15 01:21:56;;;;;;;55.83;30.50;;;;;;;10.41;100.00;101567.59;5069732;28;20032;-44
2023/05/15 01:24:40;;;;;;;60.92;29.70;;;;;;;10.39;100.00;101564.22;5067605;28;20596;-44
2023/05/15 01:27:19;;;;;;;56.58;30.33;;;;;;;10.32;100.00;101566.72;5060233;28;20058;-49
2023/05/15 01:29:53;;;;;;;56.05;30.42;;;;;;;10.30;100.00;101571.44;5066475;28;20021;-45
2023/05/15 01:32:33;;;;;;;66.95;33.72;;;;;;;10.29;100.00;101569.75;5054826;28;20029;-47
2023/05/15 01:35:09;;;;;;;58.33;30.90;;;;;;;10.30;100.00;101579.50;5065778;28;20416;-43
2023/05/15 01:37:40;;;;;;;59.65;32.53;;;;;;;10.29;100.00;101560.81;5058072;28;20029;-45
2023/05/15 01:40:08;;;;;;;61.97;30.10;;;;;;;10.29;100.00;101567.06;5065166;28;20065;-44
2023/05/15 01:42:34;;;;;;;56.25;31.15;;;;;;;10.27;100.00;101574.44;5056826;28;20021;-47
2023/05/15 01:45:04;;;;;;;62.13;32.47;;;;;;;10.29;100.00;101575.13;5053370;28;20029;-43
2023/05/15 01:47:45;;;;;;;62.55;31.13;;;;;;;10.28;100.00;101573.44;5054751;28;20025;-42
2023/05/15 01:50:14;;;;;;;55.58;26.80;;;;;;;10.26;100.00;101572.72;5060982;28;20036;-44
2023/05/15 01:52:42;;;;;;;59.25;28.35;;;;;;;10.21;100.00;101576.88;5055999;28;20143;-45
2023/05/15 01:55:08;;;;;;;57.03;31.10;;;;;;;10.24;100.00;101581.94;5058612;28;20058;-45
2023/05/15 01:57:35;;;;;;;53.30;30.27;;;;;;;10.21;100.00;101583.09;5067523;28;20033;-43
2023/05/15 02:00:00;;;;;;;57.13;29.92;;;;;;;10.26;100.00;101588.84;5066498;28;20031;-42
2023/05/15 02:02:26;;;;;;;54.00;30.52;;;;;;;10.26;100.00;101583.47;5062704;28;20024;-44
2023/05/15 02:04:53;;;;;;;53.92;29.48;;;;;;;10.26;100.00;101570.00;5057352;28;20390;-44
2023/05/15 02:07:19;;;;;;;51.85;27.70;;;;;;;10.27;100.00;101570.88;5067384;28;20389;-43
2023/05/15 02:09:45;;;;;;;56.25;27.33;;;;;;;10.29;100.00;101563.50;5054793;28;20140;-44
2023/05/15 02:12:10;;;;;;;45.33;26.10;;;;;;;10.27;100.00;101561.00;5068514;28;20039;-44
2023/05/15 02:14:36;;;;;;;51.70;27.60;;;;;;;10.27;100.00;101563.69;5052079;28;20021;-44
2023/05/15 02:17:01;;;;;;;46.70;27.67;;;;;;;10.29;100.00;101559.00;5060632;28;20060;-46
2023/05/15 02:19:27;;;;;;;59.95;29.17;;;;;;;10.22;100.00;101552.53;5053958;28;20025;-43
2023/05/15 02:21:53;;;;;;;51.45;26.55;;;;;;;10.23;100.00;101551.50;5062799;28;20032;-41
2023/05/15 02:24:18;;;;;;;51.20;28.25;;;;;;;10.22;100.00;101552.53;5068790;28;20048;-43
2023/05/15 02:26:55;;;;;;;50.20;27.77;;;;;;;10.23;100.00;101553.38;5065588;28;20397;-46
2023/05/15 02:29:54;;;;;;;56.05;29.75;;;;;;;10.18;100.00;101553.00;5055939;28;20032;-41
2023/05/15 02:32:32;;;;;;;55.15;28.00;;;;;;;10.16;100.00;101547.78;5058023;28;20436;-42
2023/05/15 02:35:02;;;;;;;;;;;;;;;10.13;100.00;101548.09;5062441;28;20467;-42
2023/05/15 02:37:30;;;;;;;55.08;30.67;;;;;;;10.14;100.00;101555.19;5068808;28;19992;-43
2023/05/15 02:39:58;;;;;;;68.18;34.25;;;;;;;10.13;100.00;101550.78;5063141;28;20035;-43
2023/05/15 02:42:28;;;;;;;59.25;32.38;;;;;;;10.15;100.00;101550.66;5066666;28;20074;-46
2023/05/15 02:44:54;;;;;;;59.97;32.53;;;;;;;10.14;100.00;101544.44;5058188;28;20071;-44
2023/05/15 02:47:20;;;;;;;60.53;31.02;;;;;;;10.17;100.00;101548.66;5061440;28;20290;-44
2023/05/15 02:49:46;;;;;;;60.03;31.25;;;;;;;10.18;100.00;101551.16;5057357;28;20101;-42
2023/05/15 02:52:11;;;;;;;60.50;30.77;;;;;;;10.19;100.00;101560.06;5055213;28;20055;-45
2023/05/15 02:54:37;;;;;;;56.17;28.83;;;;;;;10.20;100.00;101556.38;5024342;28;20493;-46
2023/05/15 02:57:02;;;;;;;57.80;27.95;;;;;;;10.21;100.00;101550.00;5056501;28;20078;-42
2023/05/15 02:59:28;;;;;;;60.03;28.75;;;;;;;10.26;100.00;101548.50;5054609;28;20028;-47
2023/05/15 03:01:53;;;;;;;56.50;29.83;;;;;;;10.30;100.00;101549.91;5052157;28;20049;-42
2023/05/15 03:04:19;;;;;;;65.75;32.85;;;;;;;10.30;100.00;101549.91;5060210;28;20025;-43
2023/05/15 03:06:45;;;;;;;62.13;33.60;;;;;;;10.31;100.00;101551.56;5058204;28;20394;-44
2023/05/15 03:09:11;;;;;;;68.85;32.13;;;;;;;10.30;100.00;101555.28;5061714;28;20171;-43
2023/05/15 03:11:36;;;;;;;62.08;31.77;;;;;;;10.35;100.00;101556.63;5065740;28;20031;-44
2023/05/15 03:14:03;;;;;;;64.25;33.17;;;;;;;10.39;100.00;101555.31;5053294;28;20025;-42
2023/05/15 03:16:28;;;;;;;67.88;33.95;;;;;;;10.40;100.00;101554.28;5066588;28;20037;-43
2023/05/15 03:18:54;;;;;;;65.32;33.90;;;;;;;10.42;100.00;101557.66;5051986;28;20406;-42
2023/05/15 03:21:19;;;;;;;64.90;32.90;;;;;;;10.45;100.00;101551.94;5043005;28;20043;-41
2023/05/15 03:23:44;;;;;;;63.90;32.88;;;;;;;10.48;100.00;101565.09;5052885;28;20043;-44
2023/05/15 03:26:10;;;;;;;68.65;35.10;;;;;;;10.50;100.00;101566.59;5066739;28;20033;-41
2023/05/15 03:28:36;;;;;;;64.57;32.60;;;;;;;10.53;100.00;101560.03;5064260;28;20024;-45
2023/05/15 03:31:03;;;;;;;53.83;25.58;;;;;;;10.58;100.00;101556.88;5071449;28;20513;-43
2023/05/15 03:33:29;;;;;;;54.42;26.95;;;;;;;10.59;100.00;101562.09;5055238;28;20036;-45
2023/05/15 03:35:54;;;;;;;57.80;27.75;;;;;;;10.57;100.00;101566.81;5067306;28;20028;-46
2023/05/15 03:38:20;;;;;;;50.35;25.92;;;;;;;10.57;100.00;101564.09;5071615;28;20474;-43
2023/05/15 03:40:45;;;;;;;51.70;25.10;;;;;;;10.55;100.00;101563.41;5059075;28;20060;-44
2023/05/15 03:43:11;;;;;;;54.70;24.25;;;;;;;10.57;100.00;101566.81;5062016;28;20378;-47
2023/05/15 03:45:37;;;;;;;48.85;24.08;;;;;;;10.54;100.00;101557.19;5057343;28;20024;-45
2023/05/15 03:48:03;;;;;;;57.85;29.35;;;;;;;10.53;100.00;101554.66;5061705;28;20033;-45
2023/05/15 03:50:29;;;;;;;45.80;25.10;;;;;;;10.55;100.00;101558.03;5060110;28;20172;-42
2023/05/15 03:52:54;;;;;;;46.65;25.83;;;;;;;10.53;100.00;101552.84;5064677;28;20025;-44
2023/05/15 03:55:19;;;;;;;48.88;25.88;;;;;;;10.54;100.00;101551.81;5057029;28;20036;-44
2023/05/15 03:57:45;;;;;;;43.30;24.98;;;;;;;10.55;100.00;101550.81;5060587;28;20036;-45
2023/05/15 04:00:12;;;;;;;51.33;27.27;;;;;;;10.58;100.00;101548.78;5060448;28;20037;-45
2023/05/15 04:02:39;;;;;;;48.27;25.63;;;;;;;10.64;100.00;101559.75;5052035;28;20152;-47
2023/05/15 04:05:05;;;;;;;51.92;27.55;;;;;;;10.66;100.00;101549.63;5041071;28;20453;-44
2023/05/15 04:07:31;;;;;;;50.67;27.80;;;;;;;10.70;100.00;101556.41;5066637;28;20073;-41
2023/05/15 04:10:00;;;;;;;51.40;26.58;;;;;;;10.76;100.00;101553.03;5063282;28;20036;-44
2023/05/15 04:12:32;;;;;;;47.97;24.83;;;;;;;10.81;100.00;101546.31;5061728;28;20364;-41
2023/05/15 04:15:23;;;;;;;45.80;25.75;;;;;;;10.86;100.00;101546.66;5053510;28;20439;-48
2023/05/15 04:17:50;;;;;;;42.10;24.30;;;;;;;10.89;100.00;101543.63;5058009;28;20063;-44
2023/05/15 04:20:18;;;;;;;48.07;25.93;;;;;;;10.93;100.00;101553.06;5059831;28;20083;-43
2023/05/15 04:22:44;;;;;;;46.33;24.55;;;;;;;10.95;100.00;101538.44;5038919;28;20024;-42
2023/05/15 04:25:11;;;;;;;54.17;27.98;;;;;;;10.95;100.00;101542.94;5062158;28;20036;-43
2023/05/15 04:27:37;;;;;;;48.42;25.10;;;;;;;10.87;100.00;101535.72;5060773;28;20032;-42
2023/05/15 04:30:03;;;;;;;53.20;28.30;;;;;;;10.90;100.00;101540.78;5046779;28;20024;-45
2023/05/15 04:32:29;;;;;;;51.15;29.52;;;;;;;10.95;100.00;101533.06;5049276;28;20033;-41
2023/05/15 04:34:57;;;;;;;51.63;27.73;;;;;;;10.95;100.00;101522.28;5060815;28;20048;-44
2023/05/15 04:37:23;;;;;;;50.40;28.02;;;;;;;11.01;100.00;101520.75;5056978;28;20025;-45
2023/05/15 04:39:48;;;;;;;54.60;29.90;;;;;;;11.05;100.00;101524.78;5050641;28;20090;-44
2023/05/15 04:42:14;;;;;;;50.97;29.55;;;;;;;11.12;100.00;101523.09;5063342;28;20265;-45
2023/05/15 04:44:39;;;;;;;59.78;32.47;;;;;;;11.15;100.00;101528.16;5052085;28;20099;-45
2023/05/15 04:47:04;;;;;;;78.25;35.08;;;;;;;11.19;100.00;101528.69;5066678;28;20040;-44
2023/05/15 04:49:33;;;;;;;60.15;33.55;;;;;;;11.21;100.00;101526.63;5054459;28;20029;-45
2023/05/15 04:51:58;;;;;;;70.03;36.15;;;;;;;11.28;100.00;101524.94;5050408;28;20033;-45
2023/05/15 04:54:23;;;;;;;65.30;34.10;;;;;;;11.33;100.00;101535.22;5054233;28;20441;-43
2023/05/15 04:56:49;;;;;;;65.43;36.60;;;;;;;11.39;100.00;101534.53;5050265;28;20063;-45
2023/05/15 04:59:15;;;;;;;64.22;36.58;;;;;;;11.41;100.00;101522.56;5050333;28;20483;-46
2023/05/15 05:01:40;;;;;;;68.13;36.80;;;;;;;11.46;100.00;101519.38;5056921;28;20558;-43
2023/05/15 05:04:05;;;;;;;66.53;36.38;;;;;;;11.43;100.00;101519.72;5041741;28;20078;-45
2023/05/15 05:06:31;;;;;;;64.15;37.75;;;;;;;11.42;100.00;101518.84;5066185;28;20086;-44
2023/05/15 05:08:57;;;;;;;60.28;33.58;;;;;;;11.45;100.00;101517.66;5057284;28;20023;-42
2023/05/15 05:11:24;;;;;;;70.30;39.13;;;;;;;11.47;100.00;101520.22;5059910;28;20509;-42
2023/05/15 05:13:50;;;;;;;75.50;39.92;;;;;;;11.50;100.00;101525.25;5056217;28;20036;-42
2023/05/15 05:16:16;;;;;;;72.32;40.42;;;;;;;11.50;100.00;101515.31;5066383;28;20032;-46
2023/05/15 05:18:41;;;;;;;74.68;40.97;;;;;;;11.52;100.00;101517.84;5061676;28;20357;-45
2023/05/15 05:21:06;;;;;;;69.03;37.75;;;;;;;11.57;100.00;101516.31;5066075;28;20079;-44
2023/05/15 05:23:32;;;;;;;77.60;40.55;;;;;;;11.57;100.00;101513.63;5053100;28;20556;-44
2023/05/15 05:25:58;;;;;;;80.00;42.00;;;;;;;11.63;100.00;101506.69;5058981;28;20433;-44
2023/05/15 05:28:24;;;;;;;79.50;41.47;;;;;;;11.65;100.00;101507.38;5070392;28;20028;-41
2023/05/15 05:30:50;;;;;;;87.80;41.13;;;;;;;11.67;100.00;101507.19;5060051;28;20036;-44
2023/05/15 05:33:15;;;;;;;72.72;40.42;;;;;;;11.67;100.00;101510.72;5069678;28;20040;-42
2023/05/15 05:35:40;;;;;;;84.90;44.38;;;;;;;11.63;100.00;101504.00;5064442;28;20043;-43
2023/05/15 05:38:06;;;;;;;84.45;42.42;;;;;;;11.69;100.00;101502.44;5068057;28;20038;-44
2023/05/15 05:40:32;;;;;;;85.35;41.10;;;;;;;11.74;100.00;101505.47;5076220;28;20056;-43
2023/05/15 05:43:01;;;;;;;74.32;39.05;;;;;;;11.82;100.00;101508.13;5077259;28;20353;-41
2023/05/15 05:45:27;;;;;;;87.78;44.65;;;;;;;11.82;100.00;101500.91;5067701;28;20108;-41
2023/05/15 05:47:55;;;;;;;83.82;41.90;;;;;;;11.88;100.00;101502.09;5058754;28;20475;-44
2023/05/15 05:50:20;;;;;;;80.38;41.75;;;;;;;11.92;100.00;101492.63;5055419;28;20457;-44
2023/05/15 05:52:46;;;;;;;84.13;43.05;;;;;;;11.95;100.00;101492.28;5061529;28;20033;-44
2023/05/15 05:55:11;;;;;;;88.60;42.03;;;;;;;11.97;100.00;101494.81;5073278;28;20032;-48
2023/05/15 05:57:36;;;;;;;80.90;39.63;;;;;;;11.95;100.00;101489.56;5061226;28;20035;-42
2023/05/15 06:00:08;;;;;;;75.90;40.00;;;;;;;11.99;100.00;101492.78;5071033;28;20471;-44
2023/05/15 06:02:34;;;;;;;74.53;39.33;;;;;;;12.03;100.00;101492.25;5066849;28;20114;-44
2023/05/15 06:05:00;;;;;;;84.15;39.22;;;;;;;12.11;100.00;101496.75;5071366;28;20032;-47
2023/05/15 06:07:25;;;;;;;88.53;41.53;;;;;;;12.17;100.00;101497.94;5057052;28;20044;-41
2023/05/15 06:09:50;;;;;;;80.38;37.83;;;;;;;12.27;100.00;101490.47;5063801;28;20123;-44
2023/05/15 06:12:16;;;;;;;83.93;40.70;;;;;;;12.38;100.00;101489.22;5074926;28;20028;-47
2023/05/15 06:14:41;;;;;;;89.70;42.72;;;;;;;12.32;100.00;101490.75;5071253;28;20514;-46
2023/05/15 06:17:06;;;;;;;87.95;41.53;;;;;;;12.36;100.00;101488.56;5064818;28;20039;-45
2023/05/15 06:19:32;;;;;;;84.18;42.55;;;;;;;12.41;100.00;101499.66;5069485;28;20107;-44
2023/05/15 06:21:58;;;;;;;86.90;42.40;;;;;;;12.43;100.00;101492.22;5056354;28;20029;-44
2023/05/15 06:24:23;;;;;;;90.63;42.88;;;;;;;12.44;100.00;101499.28;5056942;28;20080;-41
2023/05/15 06:26:49;;;;;;;82.43;40.90;;;;;;;12.55;100.00;101492.63;5061267;28;20420;-44
2023/05/15 06:29:14;;;;;;;82.18;43.67;;;;;;;12.61;100.00;101491.91;5060499;28;20526;-42
2023/05/15 06:31:39;;;;;;;88.07;41.08;;;;;;;12.76;100.00;101495.53;5070463;28;20526;-45
2023/05/15 06:34:05;;;;;;;86.50;43.08;;;;;;;12.79;100.00;101495.16;5053227;28;20059;-44
2023/05/15 06:36:30;;;;;;;82.57;41.58;;;;;;;12.89;100.00;101489.53;5050453;28;20211;-45
2023/05/15 06:38:56;;;;;;;87.65;40.67;;;;;;;13.01;100.00;101488.06;5057238;28;20039;-45
2023/05/15 06:41:21;;;;;;;78.38;39.33;;;;;;;13.04;100.00;101494.97;5026530;28;20032;-43
2023/05/15 06:43:46;;;;;;;84.28;40.25;;;;;;;13.05;100.00;101483.13;5064957;28;20060;-46
2023/05/15 06:46:15;;;;;;;78.53;41.10;;;;;;;13.00;100.00;101478.28;5064361;28;20393;-44
2023/05/15 06:48:40;;;;;;;75.35;39.45;;;;;;;12.98;100.00;101482.19;5064113;28;20120;-42
2023/05/15 06:51:05;;;;;;;102.63;45.50;;;;;;;13.02;100.00;101478.09;5064229;28;20111;-44
2023/05/15 06:53:31;;;;;;;91.43;44.58;;;;;;;12.99;100.00;101483.88;5065645;28;20063;-44
2023/05/15 06:55:56;;;;;;;92.60;45.78;;;;;;;12.96;100.00;101485.91;5066864;28;20552;-47
2023/05/15 06:58:22;;;;;;;96.72;46.65;;;;;;;12.93;100.00;101494.38;5065638;28;20064;-44
2023/05/15 07:00:47;;;;;;;93.13;46.83;;;;;;;12.91;100.00;101495.59;5063026;28;20056;-46
2023/05/15 07:03:13;;;;;;;95.25;47.90;;;;;;;12.95;100.00;101500.47;5064345;28;20032;-41
2023/05/15 07:05:38;;;;;;;91.68;45.78;;;;;;;12.96;100.00;101502.13;5064707;28;20340;-44
2023/05/15 07:08:04;;;;;;;94.03;45.38;;;;;;;12.96;100.00;101509.41;5065832;28;20364;-43
2023/05/15 07:10:29;;;;;;;83.40;42.50;;;;;;;13.00;100.00;101517.97;5064948;28;20025;-44
2023/05/15 07:12:55;;;;;;;96.50;45.75;;;;;;;12.99;100.00;101516.31;5063722;28;20376;-46
2023/05/15 07:15:21;;;;;;;96.40;44.97;;;;;;;12.95;100.00;101515.81;5066822;28;20036;-50
2023/05/15 07:17:46;;;;;;;91.60;45.05;;;;;;;12.94;100.00;101514.97;5063971;28;20553;-43
2023/05/15 07:20:12;;;;;;;87.50;44.67;;;;;;;12.93;100.00;101509.75;5063675;28;20028;-46
2023/05/15 07:22:37;;;;;;;94.55;46.10;;;;;;;12.87;100.00;101514.00;5065102;28;20035;-42
2023/05/15 07:25:03;;;;;;;92.80;46.53;;;;;;;12.86;100.00;101528.53;5062289;28;20052;-46
2023/05/15 07:27:29;;;;;;;89.50;45.20;;;;;;;12.85;100.00;101521.47;5065785;28;20483;-44
2023/05/15 07:29:54;;;;;;;97.20;45.92;;;;;;;12.82;100.00;101524.53;5066200;28;20454;-46
2023/05/15 07:32:20;;;;;;;95.57;47.53;;;;;;;12.82;100.00;101518.28;5064939;28;20119;-45
2023/05/15 07:34:45;;;;;;;90.72;44.88;;;;;;;12.80;100.00;101528.44;5065153;28;20464;-45
2023/05/15 07:37:10;;;;;;;99.47;49.75;;;;;;;12.80;100.00;101523.88;5064794;28;20387;-44
2023/05/15 07:39:36;;;;;;;94.85;47.80;;;;;;;12.75;100.00;101526.28;5064525;28;20027;-44
2023/05/15 07:42:01;;;;;;;102.22;48.50;;;;;;;12.76;100.00;101527.09;5062282;28;20033;-45
2023/05/15 07:44:27;;;;;;;105.03;48.28;;;;;;;12.77;100.00;101529.63;5063167;28;20028;-42
2023/05/15 07:46:54;;;;;;;106.25;48.75;;;;;;;12.76;100.00;101524.41;5063096;28;20426;-47
2023/05/15 07:49:19;;;;;;;104.30;48.67;;;;;;;12.71;100.00;101524.94;5064728;28;20419;-44
2023/05/15 07:51:45;;;;;;;104.18;49.90;;;;;;;12.75;100.00;101531.66;5064737;28;20116;-44
2023/05/15 07:54:10;;;;;;;105.80;47.63;;;;;;;12.77;100.00;101526.06;5062804;28;20502;-47
2023/05/15 07:56:36;;;;;;;107.15;47.97;;;;;;;12.79;100.00;101521.34;5064297;28;20051;-43
2023/05/15 07:59:02;;;;;;;116.50;50.90;;;;;;;12.76;100.00;101530.63;5066713;28;20085;-45
2023/05/15 08:01:27;;;;;;;115.22;52.40;;;;;;;12.80;100.00;101531.13;5062593;28;20044;-47
2023/05/15 08:03:53;;;;;;;112.97;52.22;;;;;;;12.82;100.00;101534.47;5066783;28;20112;-43
2023/05/15 08:06:18;;;;;;;134.15;55.92;;;;;;;12.85;100.00;101532.28;5065606;28;20462;-42
2023/05/15 08:08:43;;;;;;;134.60;56.25;;;;;;;12.84;100.00;101535.97;5064266;28;20681;-41
2023/05/15 08:11:09;;;;;;;143.80;57.83;;;;;;;12.85;100.00;101534.13;5065084;28;20024;-42
2023/05/15 08:13:34;;;;;;;145.65;57.28;;;;;;;12.81;100.00;101539.03;5064471;28;20109;-42
2023/05/15 08:15:59;;;;;;;142.10;55.97;;;;;;;12.83;100.00;101538.88;5066017;28;20020;-44
2023/05/15 08:18:25;;;;;;;132.40;52.72;;;;;;;12.81;100.00;101539.03;5065910;28;20047;-45
2023/05/15 08:20:51;;;;;;;136.98;54.55;;;;;;;12.81;100.00;101546.31;5064516;28;20461;-44
2023/05/15 08:23:16;;;;;;;141.68;55.05;;;;;;;12.83;100.00;101545.13;5064822;28;20118;-42
2023/05/15 08:25:41;;;;;;;136.35;52.95;;;;;;;12.83;100.00;101544.28;5064630;28;20059;-43
2023/05/15 08:28:07;;;;;;;133.48;51.30;;;;;;;12.86;100.00;101541.22;5064311;28;20033;-43
2023/05/15 08:30:32;;;;;;;129.02;51.08;;;;;;;12.78;100.00;101542.13;5062255;28;20041;-44
2023/05/15 08:32:57;;;;;;;131.63;49.60;;;;;;;12.78;100.00;101535.88;5063725;28;20450;-49
2023/05/15 08:35:23;;;;;;;123.45;49.47;;;;;;;12.83;100.00;101538.88;5065861;28;20124;-44
2023/05/15 08:37:48;;;;;;;120.15;47.45;;;;;;;12.85;100.00;101540.38;5062794;28;20119;-40
2023/05/15 08:40:15;;;;;;;122.30;48.33;;;;;;;13.01;100.00;101541.28;5062169;28;20495;-41
2023/05/15 08:42:47;;;;;;;120.32;48.15;;;;;;;13.16;100.00;101539.44;5063471;28;20112;-43
2023/05/15 08:45:13;;;;;;;113.50;44.88;;;;;;;13.26;100.00;101547.31;5063014;28;20109;-42
2023/05/15 08:47:40;;;;;;;113.97;47.13;;;;;;;13.30;100.00;101546.81;5063004;28;20463;-45
2023/05/15 08:50:14;;;;;;;118.03;46.80;;;;;;;13.37;100.00;101542.31;5063869;28;20040;-42
2023/05/15 08:52:48;;;;;;;106.00;41.90;;;;;;;13.36;100.00;101535.25;5062083;28;20111;-45
2023/05/15 08:55:14;;;;;;;100.40;41.88;;;;;;;13.47;100.00;101535.84;5063501;28;20468;-44
2023/05/15 08:57:41;;;;;;;97.72;38.45;;;;;;;13.44;100.00;101528.94;5063262;28;20449;-42
2023/05/15 09:00:08;;;;;;;88.10;38.47;;;;;;;13.45;100.00;101527.88;5063864;28;20048;-43
2023/05/15 09:02:40;;;;;;;87.15;39.22;;;;;;;13.54;100.00;101524.09;5063691;28;20219;-43
2023/05/15 09:05:06;;;;;;;81.60;37.03;;;;;;;13.58;100.00;101532.66;5063924;28;20078;-45
2023/05/15 09:07:32;;;;;;;79.30;36.33;;;;;;;13.58;100.00;101538.06;5062109;28;20315;-42
2023/05/15 09:09:58;;;;;;;82.13;35.60;;;;;;;13.59;100.00;101542.47;5061946;28;20439;-42
2023/05/15 09:12:24;;;;;;;76.93;36.53;;;;;;;13.63;100.00;101530.25;5057523;28;20040;-42
2023/05/15 09:14:50;;;;;;;78.03;36.17;;;;;;;13.66;100.00;101534.44;5047099;28;20033;-44
2023/05/15 09:17:16;;;;;;;77.15;35.15;;;;;;;13.66;100.00;101535.28;5055719;28;20028;-43
2023/05/15 09:19:42;;;;;;;73.30;35.75;;;;;;;13.58;100.00;101538.06;5050474;28;20040;-45
2023/05/15 09:22:22;;;;;;;80.28;36.03;;;;;;;13.68;100.00;101538.66;5049681;28;20021;-45
2023/05/15 09:24:50;;;;;;;69.72;33.50;;;;;;;13.72;100.00;101534.56;5049844;28;20065;-44
2023/05/15 09:27:15;;;;;;;66.70;31.17;;;;;;;13.74;100.00;101521.66;5050062;28;20021;-42
2023/05/15 09:29:41;;;;;;;61.20;29.92;;;;;;;13.77;100.00;101529.44;5047351;28;20039;-43
2023/05/15 09:32:08;;;;;;;61.53;30.33;;;;;;;13.79;100.00;101529.22;5048300;28;20108;-45
2023/05/15 09:34:35;;;;;;;72.03;33.22;;;;;;;13.70;100.00;101530.38;5049842;28;20021;-43
2023/05/15 09:37:03;;;;;;;65.10;31.03;;;;;;;13.72;100.00;101529.16;5049751;28;20033;-44
2023/05/15 09:39:28;;;;;;;73.00;32.97;;;;;;;13.65;100.00;101536.31;5050056;28;20272;-43
2023/05/15 09:42:05;;;;;;;72.13;32.95;;;;;;;13.59;100.00;101545.19;5050420;28;20044;-43
2023/05/15 09:44:30;;;;;;;74.80;34.13;;;;;;;13.61;100.00;101545.81;5049909;28;20044;-45
2023/05/15 09:46:56;;;;;;;61.58;31.20;;;;;;;13.65;100.00;101540.91;5048765;28;20056;-44
2023/05/15 09:49:21;;;;;;;77.95;33.92;;;;;;;13.59;100.00;101543.31;5049793;28;20039;-45
2023/05/15 09:51:48;;;;;;;66.53;29.48;;;;;;;13.63;100.00;101548.34;5050272;28;20033;-45
2023/05/15 09:54:18;;;;;;;69.95;29.38;;;;;;;13.50;100.00;101540.88;5050593;28;20037;-44
2023/05/15 09:56:45;;;;;;;59.90;27.25;;;;;;;13.47;100.00;101541.25;5032698;28;20064;-41
2023/05/15 09:59:16;;;;;;;53.78;25.52;;;;;;;13.44;100.00;101541.63;5050157;28;20531;-44
2023/05/15 10:01:44;;;;;;;47.42;23.17;;;;;;;13.53;100.00;101552.19;5049774;28;20060;-44
2023/05/15 10:04:10;;;;;;;39.17;21.58;;;;;;;13.59;100.00;101551.44;5050138;28;20040;-41
2023/05/15 10:06:38;;;;;;;44.90;19.45;;;;;;;13.79;100.00;101557.13;5048578;28;20064;-44
2023/05/15 10:09:05;;;;;;;36.72;15.23;;;;;;;13.93;100.00;101541.94;5053602;28;20041;-46
2023/05/15 10:11:33;;;;;;;29.30;13.93;;;;;;;14.03;100.00;101545.19;5053773;28;20026;-42
2023/05/15 10:13:58;;;;;;;24.65;11.77;;;;;;;14.11;100.00;101543.41;5052808;28;20029;-48
2023/05/15 10:16:24;;;;;;;22.73;9.68;;;;;;;14.25;100.00;101543.41;5052421;28;20367;-44
2023/05/15 10:18:51;;;;;;;17.38;7.90;;;;;;;14.35;100.00;101544.94;5051637;28;20463;-44
2023/05/15 10:21:19;;;;;;;13.48;6.80;;;;;;;14.60;100.00;101543.63;5052051;28;20108;-46
2023/05/15 10:23:45;;;;;;;13.10;6.70;;;;;;;14.58;100.00;101540.25;5053300;28;20021;-44
2023/05/15 10:26:17;;;;;;;15.70;6.65;;;;;;;14.59;100.00;101546.53;5053120;28;20028;-49
2023/05/15 10:28:43;;;;;;;13.65;7.00;;;;;;;14.66;100.00;101550.97;5051832;28;20520;-46
2023/05/15 10:31:09;;;;;;;19.38;6.35;;;;;;;14.55;100.00;101551.47;5052114;28;20421;-45
2023/05/15 10:33:36;;;;;;;16.80;6.57;;;;;;;14.38;100.00;101542.72;5052012;28;20052;-45
2023/05/15 10:36:02;;;;;;;17.67;6.82;;;;;;;14.18;100.00;101545.16;5051771;28;20510;-46
2023/05/15 10:38:28;;;;;;;25.35;8.32;;;;;;;14.22;100.00;101561.91;5052993;28;20048;-45
2023/05/15 10:40:55;;;;;;;22.33;9.38;;;;;;;14.07;100.00;101559.19;5051745;28;20063;-42
2023/05/15 10:43:20;;;;;;;26.57;10.20;;;;;;;13.97;100.00;101553.22;5051951;28;20093;-46
2023/05/15 10:45:46;;;;;;;25.60;10.15;;;;;;;13.93;100.00;101557.31;5035258;28;20068;-42
2023/05/15 10:48:13;;;;;;;33.22;12.20;;;;;;;13.83;100.00;101563.84;5051322;28;20025;-45
2023/05/15 10:50:38;;;;;;;31.92;12.25;;;;;;;13.77;100.00;101574.56;5051481;28;20029;-43
2023/05/15 10:53:04;;;;;;;31.75;11.90;;;;;;;13.65;100.00;101571.47;5035061;28;20447;-43
2023/05/15 10:55:30;;;;;;;34.20;12.07;;;;;;;13.51;100.00;101570.44;5052729;28;20033;-47
2023/05/15 10:57:56;;;;;;;24.83;8.95;;;;;;;13.39;100.00;101572.72;5053069;28;20074;-42
2023/05/15 11:00:21;;;;;;;21.13;7.63;;;;;;;13.24;100.00;101566.41;5052705;28;20546;-44